sensor_id;sensor_type;location;lat;lon;timestamp;pressure;altitude;pressure_sealevel;temperature
74485;BMP280;62942;52.462;10.846;2023-02-26T00:00:37;100650;;;
74485;BMP280;62942;52.462;10.846;2023-02-26T00:01:47;100660;;;
74485;BMP280;62942;52.462;10.846;2023-02-26T00:02:47;100660;;;
74485;BMP280;62942;52.462;10.846;2023-02-26T00:03:47;100660;;;
74485;BMP280;62942;52.462;10.846;2023-02-26T00:04:57;100650;;;
74485;BMP280;62942;52.462;10.846;2023-02-26T00:05:58;100650;;;
74485;BMP280;62942;52.462;10.846;2023-02-26T00:06:57;100650;;;
74485;BMP280;62942;52.462;10.846;2023-02-26T00:08:07;100660;;;
74485;BMP280;62942;52.462;10.846;2023-02-26T00:09:07;100660;;;
74485;BMP280;62942;52.462;10.846;2023-02-26T00:10:08;100650;;;
74485;BMP280;62942;52.462;10.846;2023-02-26T00:11:07;100660;;;
74485;BMP280;62942;52.462;10.846;2023-02-26T00:12:17;100670;;;
74485;BMP280;62942;52.462;10.846;2023-02-26T00:13:17;100670;;;
74485;BMP280;62942;52.462;10.846;2023-02-26T00:14:17;100670;;;
74485;BMP280;62942;52.462;10.846;2023-02-26T00:15:27;100680;;;
74485;BMP280;62942;52.462;10.846;2023-02-26T00:16:37;100670;;;
74485;BMP280;62942;52.462;10.846;2023-02-26T00:17:40;100670;;;
74485;BMP280;62942;52.462;10.846;2023-02-26T00:18:47;100670;;;
74485;BMP280;62942;52.462;10.846;2023-02-26T00:19:47;100670;;;
74485;BMP280;62942;52.462;10.846;2023-02-26T00:20:57;100670;;;
74485;BMP280;62942;52.462;10.846;2023-02-26T00:21:57;100680;;;
74485;BMP280;62942;52.462;10.846;2023-02-26T00:22:57;100680;;;
74485;BMP280;62942;52.462;10.846;2023-02-26T00:24:07;100680;;;
74485;BMP280;62942;52.462;10.846;2023-02-26T00:25:07;100690;;;
74485;BMP280;62942;52.462;10.846;2023-02-26T00:26:07;100690;;;
74485;BMP280;62942;52.462;10.846;2023-02-26T00:27:17;100700;;;
74485;BMP280;62942;52.462;10.846;2023-02-26T00:28:17;100690;;;
74485;BMP280;62942;52.462;10.846;2023-02-26T00:29:17;100700;;;
74485;BMP280;62942;52.462;10.846;2023-02-26T00:30:17;100700;;;
74485;BMP280;62942;52.462;10.846;2023-02-26T00:31:27;100690;;;
74485;BMP280;62942;52.462;10.846;2023-02-26T00:32:27;100690;;;
74485;BMP280;62942;52.462;10.846;2023-02-26T00:33:37;100700;;;
74485;BMP280;62942;52.462;10.846;2023-02-26T00:34:47;100700;;;
74485;BMP280;62942;52.462;10.846;2023-02-26T00:35:47;100700;;;
74485;BMP280;62942;52.462;10.846;2023-02-26T00:36:49;100700;;;
74485;BMP280;62942;52.462;10.846;2023-02-26T00:37:53;100700;;;
74485;BMP280;62942;52.462;10.846;2023-02-26T00:39:00;100710;;;
74485;BMP280;62942;52.462;10.846;2023-02-26T00:40:00;100710;;;
74485;BMP280;62942;52.462;10.846;2023-02-26T00:40:57;100710;;;
74485;BMP280;62942;52.462;10.846;2023-02-26T00:42:07;100710;;;
74485;BMP280;62942;52.462;10.846;2023-02-26T00:43:08;100710;;;
74485;BMP280;62942;52.462;10.846;2023-02-26T00:44:07;100710;;;
74485;BMP280;62942;52.462;10.846;2023-02-26T00:45:17;100710;;;
74485;BMP280;62942;52.462;10.846;2023-02-26T00:46:19;100710;;;
74485;BMP280;62942;52.462;10.846;2023-02-26T00:47:28;100710;;;
74485;BMP280;62942;52.462;10.846;2023-02-26T00:48:39;100710;;;
74485;BMP280;62942;52.462;10.846;2023-02-26T00:49:42;100710;;;
74485;BMP280;62942;52.462;10.846;2023-02-26T00:50:37;100710;;;
74485;BMP280;62942;52.462;10.846;2023-02-26T00:51:39;100720;;;
74485;BMP280;62942;52.462;10.846;2023-02-26T00:52:38;100720;;;
74485;BMP280;62942;52.462;10.846;2023-02-26T00:53:48;100710;;;
74485;BMP280;62942;52.462;10.846;2023-02-26T00:54:47;100720;;;
74485;BMP280;62942;52.462;10.846;2023-02-26T00:55:47;100710;;;
74485;BMP280;62942;52.462;10.846;2023-02-26T00:56:57;100710;;;
74485;BMP280;62942;52.462;10.846;2023-02-26T00:57:57;100720;;;
74485;BMP280;62942;52.462;10.846;2023-02-26T00:59:07;100720;;;
74485;BMP280;62942;52.462;10.846;2023-02-26T01:00:07;100720;;;
74485;BMP280;62942;52.462;10.846;2023-02-26T01:01:07;100720;;;
74485;BMP280;62942;52.462;10.846;2023-02-26T01:02:17;100710;;;
74485;BMP280;62942;52.462;10.846;2023-02-26T01:03:27;100720;;;
74485;BMP280;62942;52.462;10.846;2023-02-26T01:04:37;100720;;;
74485;BMP280;62942;52.462;10.846;2023-02-26T01:05:37;100730;;;
74485;BMP280;62942;52.462;10.846;2023-02-26T01:06:48;100720;;;
74485;BMP280;62942;52.462;10.846;2023-02-26T01:07:49;100710;;;
74485;BMP280;62942;52.462;10.846;2023-02-26T01:08:58;100720;;;
74485;BMP280;62942;52.462;10.846;2023-02-26T01:10:07;100710;;;
74485;BMP280;62942;52.462;10.846;2023-02-26T01:11:17;100720;;;
74485;BMP280;62942;52.462;10.846;2023-02-26T01:12:17;100730;;;
74485;BMP280;62942;52.462;10.846;2023-02-26T01:13:17;100720;;;
74485;BMP280;62942;52.462;10.846;2023-02-26T01:14:27;100720;;;
74485;BMP280;62942;52.462;10.846;2023-02-26T01:15:27;100730;;;
74485;BMP280;62942;52.462;10.846;2023-02-26T01:16:27;100720;;;
74485;BMP280;62942;52.462;10.846;2023-02-26T01:17:27;100730;;;
74485;BMP280;62942;52.462;10.846;2023-02-26T01:18:38;100730;;;
74485;BMP280;62942;52.462;10.846;2023-02-26T01:19:38;100730;;;
74485;BMP280;62942;52.462;10.846;2023-02-26T01:20:38;100730;;;
74485;BMP280;62942;52.462;10.846;2023-02-26T01:21:48;100740;;;
74485;BMP280;62942;52.462;10.846;2023-02-26T01:22:49;100740;;;
74485;BMP280;62942;52.462;10.846;2023-02-26T01:23:48;100740;;;
74485;BMP280;62942;52.462;10.846;2023-02-26T01:24:59;100740;;;
74485;BMP280;62942;52.462;10.846;2023-02-26T01:25:58;100740;;;
74485;BMP280;62942;52.462;10.846;2023-02-26T01:26:57;100740;;;
74485;BMP280;62942;52.462;10.846;2023-02-26T01:27:57;100740;;;
74485;BMP280;62942;52.462;10.846;2023-02-26T01:29:07;100740;;;
74485;BMP280;62942;52.462;10.846;2023-02-26T01:30:07;100740;;;
74485;BMP280;62942;52.462;10.846;2023-02-26T01:31:10;100740;;;
74485;BMP280;62942;52.462;10.846;2023-02-26T01:32:18;100740;;;
74485;BMP280;62942;52.462;10.846;2023-02-26T01:33:18;100760;;;
74485;BMP280;62942;52.462;10.846;2023-02-26T01:34:18;100760;;;
74485;BMP280;62942;52.462;10.846;2023-02-26T01:35:31;100770;;;
74485;BMP280;62942;52.462;10.846;2023-02-26T01:36:29;100770;;;
74485;BMP280;62942;52.462;10.846;2023-02-26T01:37:28;100770;;;
74485;BMP280;62942;52.462;10.846;2023-02-26T01:38:29;100770;;;
74485;BMP280;62942;52.462;10.846;2023-02-26T01:39:38;100770;;;
74485;BMP280;62942;52.462;10.846;2023-02-26T01:41:02;100780;;;
74485;BMP280;62942;52.462;10.846;2023-02-26T01:41:37;100780;;;
74485;BMP280;62942;52.462;10.846;2023-02-26T01:42:48;100770;;;
74485;BMP280;62942;52.462;10.846;2023-02-26T01:43:59;100770;;;
74485;BMP280;62942;52.462;10.846;2023-02-26T01:44:58;100770;;;
74485;BMP280;62942;52.462;10.846;2023-02-26T01:45:59;100770;;;
74485;BMP280;62942;52.462;10.846;2023-02-26T01:47:10;100770;;;
74485;BMP280;62942;52.462;10.846;2023-02-26T01:48:18;100770;;;
74485;BMP280;62942;52.462;10.846;2023-02-26T01:49:27;100770;;;
74485;BMP280;62942;52.462;10.846;2023-02-26T01:50:27;100780;;;
74485;BMP280;62942;52.462;10.846;2023-02-26T01:51:39;100790;;;
74485;BMP280;62942;52.462;10.846;2023-02-26T01:53:47;100780;;;
74485;BMP280;62942;52.462;10.846;2023-02-26T01:54:57;100790;;;
74485;BMP280;62942;52.462;10.846;2023-02-26T01:55:57;100790;;;
74485;BMP280;62942;52.462;10.846;2023-02-26T01:56:58;100790;;;
74485;BMP280;62942;52.462;10.846;2023-02-26T01:58:07;100790;;;
74485;BMP280;62942;52.462;10.846;2023-02-26T01:59:07;100790;;;
74485;BMP280;62942;52.462;10.846;2023-02-26T02:00:07;100790;;;
74485;BMP280;62942;52.462;10.846;2023-02-26T02:01:07;100790;;;
74485;BMP280;62942;52.462;10.846;2023-02-26T02:02:18;100800;;;
74485;BMP280;62942;52.462;10.846;2023-02-26T02:03:17;100800;;;
74485;BMP280;62942;52.462;10.846;2023-02-26T02:04:27;100800;;;
74485;BMP280;62942;52.462;10.846;2023-02-26T02:05:27;100810;;;
74485;BMP280;62942;52.462;10.846;2023-02-26T02:06:27;100810;;;
74485;BMP280;62942;52.462;10.846;2023-02-26T02:07:37;100800;;;
74485;BMP280;62942;52.462;10.846;2023-02-26T02:08:37;100800;;;
74485;BMP280;62942;52.462;10.846;2023-02-26T02:09:37;100800;;;
74485;BMP280;62942;52.462;10.846;2023-02-26T02:10:47;100810;;;
74485;BMP280;62942;52.462;10.846;2023-02-26T02:12:01;100800;;;
74485;BMP280;62942;52.462;10.846;2023-02-26T02:13:01;100810;;;
74485;BMP280;62942;52.462;10.846;2023-02-26T02:14:09;100810;;;
74485;BMP280;62942;52.462;10.846;2023-02-26T02:15:18;100810;;;
74485;BMP280;62942;52.462;10.846;2023-02-26T02:16:30;100800;;;
74485;BMP280;62942;52.462;10.846;2023-02-26T02:17:29;100800;;;
74485;BMP280;62942;52.462;10.846;2023-02-26T02:18:30;100820;;;
74485;BMP280;62942;52.462;10.846;2023-02-26T02:19:42;100820;;;
74485;BMP280;62942;52.462;10.846;2023-02-26T02:20:42;100820;;;
74485;BMP280;62942;52.462;10.846;2023-02-26T02:21:49;100820;;;
74485;BMP280;62942;52.462;10.846;2023-02-26T02:22:50;100820;;;
74485;BMP280;62942;52.462;10.846;2023-02-26T02:23:58;100830;;;
74485;BMP280;62942;52.462;10.846;2023-02-26T02:25:01;100820;;;
74485;BMP280;62942;52.462;10.846;2023-02-26T02:26:13;100820;;;
74485;BMP280;62942;52.462;10.846;2023-02-26T02:27:18;100820;;;
74485;BMP280;62942;52.462;10.846;2023-02-26T02:28:30;100820;;;
74485;BMP280;62942;52.462;10.846;2023-02-26T02:29:31;100820;;;
74485;BMP280;62942;52.462;10.846;2023-02-26T02:30:37;100820;;;
74485;BMP280;62942;52.462;10.846;2023-02-26T02:31:37;100820;;;
74485;BMP280;62942;52.462;10.846;2023-02-26T02:32:37;100820;;;
74485;BMP280;62942;52.462;10.846;2023-02-26T02:33:48;100820;;;
74485;BMP280;62942;52.462;10.846;2023-02-26T02:34:47;100820;;;
74485;BMP280;62942;52.462;10.846;2023-02-26T02:35:58;100830;;;
74485;BMP280;62942;52.462;10.846;2023-02-26T02:36:58;100820;;;
74485;BMP280;62942;52.462;10.846;2023-02-26T02:37:57;100820;;;
74485;BMP280;62942;52.462;10.846;2023-02-26T02:39:07;100830;;;
74485;BMP280;62942;52.462;10.846;2023-02-26T02:40:08;100820;;;
74485;BMP280;62942;52.462;10.846;2023-02-26T02:41:18;100830;;;
74485;BMP280;62942;52.462;10.846;2023-02-26T02:42:18;100830;;;
74485;BMP280;62942;52.462;10.846;2023-02-26T02:43:29;100830;;;
74485;BMP280;62942;52.462;10.846;2023-02-26T02:44:27;100830;;;
74485;BMP280;62942;52.462;10.846;2023-02-26T02:45:39;100840;;;
74485;BMP280;62942;52.462;10.846;2023-02-26T02:46:37;100840;;;
74485;BMP280;62942;52.462;10.846;2023-02-26T02:47:47;100840;;;
74485;BMP280;62942;52.462;10.846;2023-02-26T02:48:48;100840;;;
74485;BMP280;62942;52.462;10.846;2023-02-26T02:49:47;100840;;;
74485;BMP280;62942;52.462;10.846;2023-02-26T02:50:58;100840;;;
74485;BMP280;62942;52.462;10.846;2023-02-26T02:51:58;100840;;;
74485;BMP280;62942;52.462;10.846;2023-02-26T02:52:57;100850;;;
74485;BMP280;62942;52.462;10.846;2023-02-26T02:54:08;100850;;;
74485;BMP280;62942;52.462;10.846;2023-02-26T02:55:08;100840;;;
74485;BMP280;62942;52.462;10.846;2023-02-26T02:56:08;100850;;;
74485;BMP280;62942;52.462;10.846;2023-02-26T02:57:18;100850;;;
74485;BMP280;62942;52.462;10.846;2023-02-26T02:58:18;100850;;;
74485;BMP280;62942;52.462;10.846;2023-02-26T02:59:17;100860;;;
74485;BMP280;62942;52.462;10.846;2023-02-26T03:00:27;100860;;;
74485;BMP280;62942;52.462;10.846;2023-02-26T03:01:37;100860;;;
74485;BMP280;62942;52.462;10.846;2023-02-26T03:02:38;100860;;;
74485;BMP280;62942;52.462;10.846;2023-02-26T03:03:38;100860;;;
74485;BMP280;62942;52.462;10.846;2023-02-26T03:04:47;100860;;;
74485;BMP280;62942;52.462;10.846;2023-02-26T03:05:47;100860;;;
74485;BMP280;62942;52.462;10.846;2023-02-26T03:06:57;100860;;;
74485;BMP280;62942;52.462;10.846;2023-02-26T03:08:09;100860;;;
74485;BMP280;62942;52.462;10.846;2023-02-26T03:09:08;100860;;;
74485;BMP280;62942;52.462;10.846;2023-02-26T03:10:17;100870;;;
74485;BMP280;62942;52.462;10.846;2023-02-26T03:11:17;100860;;;
74485;BMP280;62942;52.462;10.846;2023-02-26T03:12:29;100870;;;
74485;BMP280;62942;52.462;10.846;2023-02-26T03:13:27;100870;;;
74485;BMP280;62942;52.462;10.846;2023-02-26T03:14:37;100870;;;
74485;BMP280;62942;52.462;10.846;2023-02-26T03:15:37;100870;;;
74485;BMP280;62942;52.462;10.846;2023-02-26T03:16:48;100870;;;
74485;BMP280;62942;52.462;10.846;2023-02-26T03:17:49;100880;;;
74485;BMP280;62942;52.462;10.846;2023-02-26T03:18:49;100870;;;
74485;BMP280;62942;52.462;10.846;2023-02-26T03:19:49;100870;;;
74485;BMP280;62942;52.462;10.846;2023-02-26T03:20:59;100880;;;
74485;BMP280;62942;52.462;10.846;2023-02-26T03:21:58;100880;;;
74485;BMP280;62942;52.462;10.846;2023-02-26T03:23:08;100880;;;
74485;BMP280;62942;52.462;10.846;2023-02-26T03:24:08;100880;;;
74485;BMP280;62942;52.462;10.846;2023-02-26T03:25:17;100890;;;
74485;BMP280;62942;52.462;10.846;2023-02-26T03:26:18;100890;;;
74485;BMP280;62942;52.462;10.846;2023-02-26T03:27:27;100890;;;
74485;BMP280;62942;52.462;10.846;2023-02-26T03:28:28;100890;;;
74485;BMP280;62942;52.462;10.846;2023-02-26T03:29:38;100890;;;
74485;BMP280;62942;52.462;10.846;2023-02-26T03:30:38;100890;;;
74485;BMP280;62942;52.462;10.846;2023-02-26T03:31:48;100890;;;
74485;BMP280;62942;52.462;10.846;2023-02-26T03:32:49;100890;;;
74485;BMP280;62942;52.462;10.846;2023-02-26T03:33:58;100900;;;
74485;BMP280;62942;52.462;10.846;2023-02-26T03:34:58;100900;;;
74485;BMP280;62942;52.462;10.846;2023-02-26T03:36:07;100900;;;
74485;BMP280;62942;52.462;10.846;2023-02-26T03:37:08;100900;;;
74485;BMP280;62942;52.462;10.846;2023-02-26T03:38:08;100900;;;
74485;BMP280;62942;52.462;10.846;2023-02-26T03:39:17;100900;;;
74485;BMP280;62942;52.462;10.846;2023-02-26T03:40:18;100900;;;
74485;BMP280;62942;52.462;10.846;2023-02-26T03:41:28;100890;;;
74485;BMP280;62942;52.462;10.846;2023-02-26T03:42:27;100890;;;
74485;BMP280;62942;52.462;10.846;2023-02-26T03:43:30;100900;;;
74485;BMP280;62942;52.462;10.846;2023-02-26T03:44:38;100900;;;
74485;BMP280;62942;52.462;10.846;2023-02-26T03:45:37;100900;;;
74485;BMP280;62942;52.462;10.846;2023-02-26T03:46:47;100900;;;
74485;BMP280;62942;52.462;10.846;2023-02-26T03:47:49;100890;;;
74485;BMP280;62942;52.462;10.846;2023-02-26T03:48:57;100910;;;
74485;BMP280;62942;52.462;10.846;2023-02-26T03:49:57;100910;;;
74485;BMP280;62942;52.462;10.846;2023-02-26T03:51:07;100900;;;
74485;BMP280;62942;52.462;10.846;2023-02-26T03:52:07;100900;;;
74485;BMP280;62942;52.462;10.846;2023-02-26T03:53:08;100900;;;
74485;BMP280;62942;52.462;10.846;2023-02-26T03:54:18;100900;;;
74485;BMP280;62942;52.462;10.846;2023-02-26T03:55:18;100900;;;
74485;BMP280;62942;52.462;10.846;2023-02-26T03:56:27;100920;;;
74485;BMP280;62942;52.462;10.846;2023-02-26T03:57:27;100910;;;
74485;BMP280;62942;52.462;10.846;2023-02-26T03:58:37;100920;;;
74485;BMP280;62942;52.462;10.846;2023-02-26T03:59:37;100920;;;
74485;BMP280;62942;52.462;10.846;2023-02-26T04:00:49;100920;;;
74485;BMP280;62942;52.462;10.846;2023-02-26T04:01:48;100920;;;
74485;BMP280;62942;52.462;10.846;2023-02-26T04:02:58;100930;;;
74485;BMP280;62942;52.462;10.846;2023-02-26T04:03:57;100930;;;
74485;BMP280;62942;52.462;10.846;2023-02-26T04:04:58;100920;;;
74485;BMP280;62942;52.462;10.846;2023-02-26T04:06:07;100920;;;
74485;BMP280;62942;52.462;10.846;2023-02-26T04:07:07;100930;;;
74485;BMP280;62942;52.462;10.846;2023-02-26T04:08:17;100930;;;
74485;BMP280;62942;52.462;10.846;2023-02-26T04:09:17;100930;;;
74485;BMP280;62942;52.462;10.846;2023-02-26T04:10:29;100930;;;
74485;BMP280;62942;52.462;10.846;2023-02-26T04:11:27;100930;;;
74485;BMP280;62942;52.462;10.846;2023-02-26T04:12:37;100930;;;
74485;BMP280;62942;52.462;10.846;2023-02-26T04:13:37;100930;;;
74485;BMP280;62942;52.462;10.846;2023-02-26T04:14:47;100930;;;
74485;BMP280;62942;52.462;10.846;2023-02-26T04:15:47;100940;;;
74485;BMP280;62942;52.462;10.846;2023-02-26T04:16:47;100940;;;
74485;BMP280;62942;52.462;10.846;2023-02-26T04:17:57;100940;;;
74485;BMP280;62942;52.462;10.846;2023-02-26T04:18:57;100940;;;
74485;BMP280;62942;52.462;10.846;2023-02-26T04:20:07;100950;;;
74485;BMP280;62942;52.462;10.846;2023-02-26T04:21:09;100950;;;
74485;BMP280;62942;52.462;10.846;2023-02-26T04:22:17;100950;;;
74485;BMP280;62942;52.462;10.846;2023-02-26T04:23:17;100950;;;
74485;BMP280;62942;52.462;10.846;2023-02-26T04:24:27;100960;;;
74485;BMP280;62942;52.462;10.846;2023-02-26T04:25:27;100960;;;
74485;BMP280;62942;52.462;10.846;2023-02-26T04:26:27;100960;;;
74485;BMP280;62942;52.462;10.846;2023-02-26T04:27:37;100960;;;
74485;BMP280;62942;52.462;10.846;2023-02-26T04:28:47;100960;;;
74485;BMP280;62942;52.462;10.846;2023-02-26T04:29:47;100960;;;
74485;BMP280;62942;52.462;10.846;2023-02-26T04:30:57;100960;;;
74485;BMP280;62942;52.462;10.846;2023-02-26T04:31:57;100960;;;
74485;BMP280;62942;52.462;10.846;2023-02-26T04:33:07;100960;;;
74485;BMP280;62942;52.462;10.846;2023-02-26T04:34:07;100960;;;
74485;BMP280;62942;52.462;10.846;2023-02-26T04:35:17;100960;;;
74485;BMP280;62942;52.462;10.846;2023-02-26T04:36:17;100960;;;
74485;BMP280;62942;52.462;10.846;2023-02-26T04:37:27;100970;;;
74485;BMP280;62942;52.462;10.846;2023-02-26T04:38:37;100970;;;
74485;BMP280;62942;52.462;10.846;2023-02-26T04:39:37;100960;;;
74485;BMP280;62942;52.462;10.846;2023-02-26T04:40:37;100970;;;
74485;BMP280;62942;52.462;10.846;2023-02-26T04:41:47;100970;;;
74485;BMP280;62942;52.462;10.846;2023-02-26T04:42:46;100970;;;
74485;BMP280;62942;52.462;10.846;2023-02-26T04:43:47;100980;;;
74485;BMP280;62942;52.462;10.846;2023-02-26T04:44:56;100980;;;
74485;BMP280;62942;52.462;10.846;2023-02-26T04:45:57;100980;;;
74485;BMP280;62942;52.462;10.846;2023-02-26T04:47:07;100980;;;
74485;BMP280;62942;52.462;10.846;2023-02-26T04:48:07;100980;;;
74485;BMP280;62942;52.462;10.846;2023-02-26T04:49:17;100980;;;
74485;BMP280;62942;52.462;10.846;2023-02-26T04:50:17;100980;;;
74485;BMP280;62942;52.462;10.846;2023-02-26T04:51:27;100980;;;
74485;BMP280;62942;52.462;10.846;2023-02-26T04:52:36;100980;;;
74485;BMP280;62942;52.462;10.846;2023-02-26T04:53:37;100980;;;
74485;BMP280;62942;52.462;10.846;2023-02-26T04:54:47;100980;;;
74485;BMP280;62942;52.462;10.846;2023-02-26T04:55:47;100980;;;
74485;BMP280;62942;52.462;10.846;2023-02-26T04:56:57;100980;;;
74485;BMP280;62942;52.462;10.846;2023-02-26T04:57:56;100980;;;
74485;BMP280;62942;52.462;10.846;2023-02-26T04:59:07;100990;;;
74485;BMP280;62942;52.462;10.846;2023-02-26T05:00:07;100990;;;
74485;BMP280;62942;52.462;10.846;2023-02-26T05:01:07;100990;;;
74485;BMP280;62942;52.462;10.846;2023-02-26T05:02:17;100990;;;
74485;BMP280;62942;52.462;10.846;2023-02-26T05:03:26;100980;;;
74485;BMP280;62942;52.462;10.846;2023-02-26T05:04:26;100990;;;
74485;BMP280;62942;52.462;10.846;2023-02-26T05:05:36;101000;;;
74485;BMP280;62942;52.462;10.846;2023-02-26T05:06:47;101000;;;
74485;BMP280;62942;52.462;10.846;2023-02-26T05:07:46;101000;;;
74485;BMP280;62942;52.462;10.846;2023-02-26T05:08:47;101000;;;
74485;BMP280;62942;52.462;10.846;2023-02-26T05:09:56;101010;;;
74485;BMP280;62942;52.462;10.846;2023-02-26T05:10:56;101010;;;
74485;BMP280;62942;52.462;10.846;2023-02-26T05:12:06;101010;;;
74485;BMP280;62942;52.462;10.846;2023-02-26T05:13:06;101010;;;
74485;BMP280;62942;52.462;10.846;2023-02-26T05:14:16;101010;;;
74485;BMP280;62942;52.462;10.846;2023-02-26T05:15:27;101010;;;
74485;BMP280;62942;52.462;10.846;2023-02-26T05:16:36;101020;;;
74485;BMP280;62942;52.462;10.846;2023-02-26T05:17:36;101020;;;
74485;BMP280;62942;52.462;10.846;2023-02-26T05:18:36;101020;;;
74485;BMP280;62942;52.462;10.846;2023-02-26T05:19:46;101010;;;
74485;BMP280;62942;52.462;10.846;2023-02-26T05:20:50;101020;;;
74485;BMP280;62942;52.462;10.846;2023-02-26T05:21:46;101020;;;
74485;BMP280;62942;52.462;10.846;2023-02-26T05:22:56;101020;;;
74485;BMP280;62942;52.462;10.846;2023-02-26T05:23:56;101020;;;
74485;BMP280;62942;52.462;10.846;2023-02-26T05:24:56;101020;;;
74485;BMP280;62942;52.462;10.846;2023-02-26T05:26:06;101030;;;
74485;BMP280;62942;52.462;10.846;2023-02-26T05:27:06;101030;;;
74485;BMP280;62942;52.462;10.846;2023-02-26T05:28:16;101030;;;
74485;BMP280;62942;52.462;10.846;2023-02-26T05:29:16;101030;;;
74485;BMP280;62942;52.462;10.846;2023-02-26T05:30:16;101040;;;
74485;BMP280;62942;52.462;10.846;2023-02-26T05:31:26;101030;;;
74485;BMP280;62942;52.462;10.846;2023-02-26T05:32:36;101040;;;
74485;BMP280;62942;52.462;10.846;2023-02-26T05:33:36;101040;;;
74485;BMP280;62942;52.462;10.846;2023-02-26T05:34:46;101050;;;
74485;BMP280;62942;52.462;10.846;2023-02-26T05:35:46;101050;;;
74485;BMP280;62942;52.462;10.846;2023-02-26T05:36:56;101060;;;
74485;BMP280;62942;52.462;10.846;2023-02-26T05:38:06;101050;;;
74485;BMP280;62942;52.462;10.846;2023-02-26T05:39:07;101050;;;
74485;BMP280;62942;52.462;10.846;2023-02-26T05:40:07;101060;;;
74485;BMP280;62942;52.462;10.846;2023-02-26T05:41:06;101060;;;
74485;BMP280;62942;52.462;10.846;2023-02-26T05:42:16;101060;;;
74485;BMP280;62942;52.462;10.846;2023-02-26T05:43:17;101060;;;
74485;BMP280;62942;52.462;10.846;2023-02-26T05:44:26;101060;;;
74485;BMP280;62942;52.462;10.846;2023-02-26T05:45:36;101070;;;
74485;BMP280;62942;52.462;10.846;2023-02-26T05:46:36;101070;;;
74485;BMP280;62942;52.462;10.846;2023-02-26T05:47:37;101070;;;
74485;BMP280;62942;52.462;10.846;2023-02-26T05:48:36;101070;;;
74485;BMP280;62942;52.462;10.846;2023-02-26T05:49:46;101070;;;
74485;BMP280;62942;52.462;10.846;2023-02-26T05:50:47;101080;;;
74485;BMP280;62942;52.462;10.846;2023-02-26T05:51:56;101080;;;
74485;BMP280;62942;52.462;10.846;2023-02-26T05:52:56;101090;;;
74485;BMP280;62942;52.462;10.846;2023-02-26T05:54:07;101080;;;
74485;BMP280;62942;52.462;10.846;2023-02-26T05:55:17;101090;;;
74485;BMP280;62942;52.462;10.846;2023-02-26T05:56:16;101090;;;
74485;BMP280;62942;52.462;10.846;2023-02-26T05:57:16;101080;;;
74485;BMP280;62942;52.462;10.846;2023-02-26T05:58:16;101090;;;
74485;BMP280;62942;52.462;10.846;2023-02-26T05:59:26;101080;;;
74485;BMP280;62942;52.462;10.846;2023-02-26T06:00:36;101080;;;
74485;BMP280;62942;52.462;10.846;2023-02-26T06:01:36;101090;;;
74485;BMP280;62942;52.462;10.846;2023-02-26T06:02:36;101090;;;
74485;BMP280;62942;52.462;10.846;2023-02-26T06:03:46;101090;;;
74485;BMP280;62942;52.462;10.846;2023-02-26T06:04:46;101090;;;
74485;BMP280;62942;52.462;10.846;2023-02-26T06:05:56;101090;;;
74485;BMP280;62942;52.462;10.846;2023-02-26T06:06:56;101090;;;
74485;BMP280;62942;52.462;10.846;2023-02-26T06:08:06;101090;;;
74485;BMP280;62942;52.462;10.846;2023-02-26T06:09:06;101100;;;
74485;BMP280;62942;52.462;10.846;2023-02-26T06:10:07;101100;;;
74485;BMP280;62942;52.462;10.846;2023-02-26T06:11:06;101100;;;
74485;BMP280;62942;52.462;10.846;2023-02-26T06:12:16;101100;;;
74485;BMP280;62942;52.462;10.846;2023-02-26T06:13:17;101100;;;
74485;BMP280;62942;52.462;10.846;2023-02-26T06:14:16;101110;;;
74485;BMP280;62942;52.462;10.846;2023-02-26T06:15:26;101110;;;
74485;BMP280;62942;52.462;10.846;2023-02-26T06:16:26;101100;;;
74485;BMP280;62942;52.462;10.846;2023-02-26T06:17:26;101110;;;
74485;BMP280;62942;52.462;10.846;2023-02-26T06:18:36;101110;;;
74485;BMP280;62942;52.462;10.846;2023-02-26T06:19:36;101110;;;
74485;BMP280;62942;52.462;10.846;2023-02-26T06:20:36;101120;;;
74485;BMP280;62942;52.462;10.846;2023-02-26T06:21:36;101120;;;
74485;BMP280;62942;52.462;10.846;2023-02-26T06:22:46;101120;;;
74485;BMP280;62942;52.462;10.846;2023-02-26T06:23:46;101120;;;
74485;BMP280;62942;52.462;10.846;2023-02-26T06:24:46;101130;;;
74485;BMP280;62942;52.462;10.846;2023-02-26T06:25:56;101130;;;
74485;BMP280;62942;52.462;10.846;2023-02-26T06:26:56;101130;;;
74485;BMP280;62942;52.462;10.846;2023-02-26T06:27:56;101130;;;
74485;BMP280;62942;52.462;10.846;2023-02-26T06:28:56;101130;;;
74485;BMP280;62942;52.462;10.846;2023-02-26T06:29:56;101130;;;
74485;BMP280;62942;52.462;10.846;2023-02-26T06:31:06;101130;;;
74485;BMP280;62942;52.462;10.846;2023-02-26T06:32:06;101130;;;
74485;BMP280;62942;52.462;10.846;2023-02-26T06:33:06;101130;;;
74485;BMP280;62942;52.462;10.846;2023-02-26T06:34:16;101130;;;
74485;BMP280;62942;52.462;10.846;2023-02-26T06:35:16;101140;;;
74485;BMP280;62942;52.462;10.846;2023-02-26T06:36:16;101130;;;
74485;BMP280;62942;52.462;10.846;2023-02-26T06:37:26;101140;;;
74485;BMP280;62942;52.462;10.846;2023-02-26T06:38:36;101140;;;
74485;BMP280;62942;52.462;10.846;2023-02-26T06:39:36;101140;;;
74485;BMP280;62942;52.462;10.846;2023-02-26T06:40:46;101140;;;
74485;BMP280;62942;52.462;10.846;2023-02-26T06:41:46;101150;;;
74485;BMP280;62942;52.462;10.846;2023-02-26T06:42:46;101150;;;
74485;BMP280;62942;52.462;10.846;2023-02-26T06:43:46;101150;;;
74485;BMP280;62942;52.462;10.846;2023-02-26T06:44:56;101150;;;
74485;BMP280;62942;52.462;10.846;2023-02-26T06:45:57;101150;;;
74485;BMP280;62942;52.462;10.846;2023-02-26T06:47:06;101150;;;